Airfield :
LOGIN :

Register | Disclaimer

   EN    FR    IT 

 










Legend :    VFR   Marginal VFR   IFR   Intensive IFR   Very Intensive IFR
Visi :
Ceiling :
>= 8 km
>= 3000ft
5 to 8 km
1000 to 3000 ft
1500m to 5 km
500 to 1000 ft
800 to 1500m
200 to 500 ft
< 800m
< 200 ft
Symbols :   Thunderstorms  Fog  Heavy snow  Heavy precipitations  Wind > 20 kt
SIGMETs :     Misc.  Thunderstorms  Icing  Turbulence  Mountain Waves  Volcanic Ashes






- Airport Elevation : 297 ft
- IATA code : BBU


LRBS - Bucarest - Baneasa Aurel Vlaicu

CURRENT METAR :
  • 240530Z 26013KT CAVOK 08/M02 Q1005 BECMG 27025KT

EXPIRED METARs :
  • 240500Z 26013KT CAVOK 07/M02 Q1005 NOSIG
  • 240430Z 26009KT CAVOK 07/M02 Q1005 NOSIG
  • 240400Z 26008KT CAVOK 07/M02 Q1006 NOSIG
  • 240330Z 26007KT CAVOK 06/M02 Q1006 NOSIG
  • 240300Z 25008KT CAVOK 06/M02 Q1006 NOSIG

TAF TAF LRBS
Valid from the 24 at 06:00 until the 25 at 06:00 UTC


240500Z 2406/2506 26020KT CAVOK
TEMPO 2407/2410 27030G40KT
BECMG 2410/2412 35020G30KT
BECMG 2414/2416 35014KT
BECMG 2418/2420 VRB04KT



MET'MAP, your aeronautical weather chart ! - Copyright ORBIFLY December 2007 - Disclaimer

ORBIFLY MET'MAP TEAM :

Programming & Development : Alexandra Zaïnal
Concept & original design : Baudouin d'Aumeries
Assistance for programming : Marc-Olivier Méhu
Technical & hardware support : Manuel Goepfert

Contact : metmap@orbifly.com




SOURCES & CREDITS :

   NOAA